Aérodrome :
LOGIN :

S'inscrire | Disclaimer

   EN    FR    IT 

 










Légende :    VFR   VFR Marginal   IFR   IFR Intensif   IFR Très Intensif
Visi : 
Plafond : 
>= 8 km
>= 3000ft
5 à 8 km
1000 à 3000 ft
1500m à 5 km
500 à 1000 ft
800 à 1500m
200 à 500 ft
< 800m
< 200 ft
Symboles :   Orages  Brouillard  Fortes neiges  Fortes précipitations  Vent > 20 kt
SIGMETs :   Divers  Orages  Givrage  Turbulence  Onde Orograph.  Cendres Volcan.






- Altitude de l'aérodrome : 699 ft
- Code IATA : PAD


EDLP - Paderborn Lippstadt

DERNIER METAR :
  • 201620Z 09007KT CAVOK 20/13 Q1010

METARs EXPIRÉS :
  • 201550Z 07006KT 040V110 CAVOK 19/13 Q1010
  • 201520Z 08005KT 050V110 CAVOK 19/12 Q1010
  • 201450Z 10004KT 070V130 CAVOK 19/12 Q1011
  • 201420Z 15003KT 110V190 CAVOK 18/11 Q1011
  • 201350Z 16004KT 110V190 CAVOK 18/12 Q1011
  • 201320Z 15005KT 100V180 9999 FEW028 18/12 Q1011
  • 201250Z 14006KT 100V170 9999 FEW029 18/12 Q1011
  • 201220Z 07003KT 350V130 CAVOK 18/12 Q1011
  • 201150Z 13004KT 090V190 9999 FEW024 SCT029 17/13 Q1012
  • 201120Z VRB02KT 9999 FEW024 BKN029 BKN037 17/13 Q1012

TAF TAF EDLP
Valide du 20 à 12h jusqu'au 21 à 12h UTC


201100Z 2012/2112 VRB03KT 9999 SCT020
PROB30
TEMPO 2012/2016 SHRA BKN025CB
BECMG 2105/2108 09008KT



MET'MAP, la Météo Aéronautique d'un coup d'oeil ! - Copyright ORBIFLY Décembre 2007 - Disclaimer

ORBIFLY MET'MAP TEAM :

Programmation & Développement : Alexandra Zaïnal
Sur une idée originale de : Baudouin d'Aumeries
Soutien technique & logistique : Manuel Goepfert
Assistance : Marc-Olivier Méhu




SOURCES & CREDITS :

   NOAA